Time;durP1;ratioP1;P1;durP2;ratioP2;P2;SDS_P1;SDS_P2;PMS_P1;PMS_P2;Temp;Humidity;BMP_temperature;BMP_pressure;BME280_temperature;BME280_humidity;BME280_pressure;Samples;Min_cycle;Max_cycle;Signal;HPM_P1;HPM_P2
2023/05/23 00:02:44;;;;;;;;;;;;;;;;;;5035727;28;19931;-87
2023/05/23 00:05:30;;;;;;;;;;;;;;;;;;5037537;28;20327;-87
2023/05/23 00:08:17;;;;;;;;;;;;;;;;;;5055295;28;20467;-88
2023/05/23 00:11:03;;;;;;;;;;;;;;;;;;5042611;28;19931;-88
2023/05/23 00:13:50;;;;;;;;;;;;;;;;;;5045591;28;19920;-88
2023/05/23 00:16:40;;;;;;;;;;;;;;;;;;5042683;28;19925;-87
2023/05/23 00:19:26;;;;;;;;;;;;;;;;;;5029684;28;19917;-88
2023/05/23 00:22:15;;;;;;;;;;;;;;;;;;5051140;28;19916;-89
2023/05/23 00:25:01;;;;;;;;;;;;;;;;;;5047109;28;19927;-88
2023/05/23 00:27:48;;;;;;;;;;;;;;;;;;5042704;28;19935;-86
2023/05/23 00:30:34;;;;;;;;;;;;;;;;;;5032053;28;19925;-86
2023/05/23 00:33:21;;;;;;;;;;;;;;;;;;5046534;28;19948;-88
2023/05/23 00:36:08;;;;;;;;;;;;;;;;;;5041145;28;19921;-86
2023/05/23 00:38:54;;;;;;;;;;;;;;;;;;5033544;28;20396;-87
2023/05/23 00:41:41;;;;;;;;;;;;;;;;;;5034988;28;20392;-87
2023/05/23 00:44:27;;;;;;;;;;;;;;;;;;5043298;28;19917;-87
2023/05/23 00:47:14;;;;;;;;;;;;;;;;;;5045128;28;20422;-87
2023/05/23 00:50:00;;;;;;;;;;;;;;;;;;5031387;28;19939;-89
2023/05/23 00:52:46;;;;;;;;;;;;;;;;;;5026264;28;19921;-87
2023/05/23 00:55:33;;;;;;;;;;;;;;;;;;5047686;28;19921;-88
2023/05/23 00:58:20;;;;;;;;;;;;;;;;;;5034136;28;19923;-88
2023/05/23 01:01:06;;;;;;;;;;;;;;;;;;5028955;28;19921;-88
2023/05/23 01:03:53;;;;;;;;;;;;;;;;;;5049862;28;19930;-88
2023/05/23 01:06:39;;;;;;;;;;;;;;;;;;5025764;28;19917;-87
2023/05/23 01:09:26;;;;;;;;;;;;;;;;;;5041963;28;20273;-86
2023/05/23 01:12:12;;;;;;;;;;;;;;;;;;5020003;28;19917;-86
2023/05/23 01:14:59;;;;;;;;;;;;;;;;;;5039073;28;19916;-86
2023/05/23 01:17:46;;;;;;;;;;;;;;;;;;5030948;28;19921;-86
2023/05/23 01:20:32;;;;;;;;;;;;;;;;;;5038447;28;19944;-87
2023/05/23 01:23:19;;;;;;;;;;;;;;;;;;5035374;28;20487;-87
2023/05/23 01:26:05;;;;;;;;;;;;;;;;;;5035304;28;19932;-88
2023/05/23 01:28:52;;;;;;;;;;;;;;;;;;5034032;28;19928;-88
2023/05/23 01:31:38;;;;;;;;;;;;;;;;;;5045720;28;19925;-87
2023/05/23 01:34:25;;;;;;;;;;;;;;;;;;5035791;28;19936;-88
2023/05/23 01:37:13;;;;;;;;;;;;;;;;;;5043339;28;19920;-90
2023/05/23 01:40:00;;;;;;;;;;;;;;;;;;5041883;28;20026;-90
2023/05/23 01:42:46;;;;;;;;;;;;;;;;;;5039907;28;19917;-88
2023/05/23 01:45:33;;;;;;;;;;;;;;;;;;5056813;28;19917;-88
2023/05/23 01:48:19;;;;;;;;;;;;;;;;;;5028070;28;20016;-88
2023/05/23 01:51:06;;;;;;;;;;;;;;;;;;5042413;28;19912;-87
2023/05/23 01:53:52;;;;;;;;;;;;;;;;;;5032747;28;19928;-88
2023/05/23 01:56:39;;;;;;;;;;;;;;;;;;5040116;28;20635;-87
2023/05/23 01:59:25;;;;;;;;;;;;;;;;;;5033839;28;19978;-87
2023/05/23 02:02:12;;;;;;;;;;;;;;;;;;5043951;28;19916;-89
2023/05/23 02:04:58;;;;;;;;;;;;;;;;;;5036163;28;19917;-86
2023/05/23 02:07:45;;;;;;;;;;;;;;;;;;5034293;28;19936;-86
2023/05/23 02:10:31;;;;;;;;;;;;;;;;;;5034565;28;19924;-86
2023/05/23 02:13:18;;;;;;;;;;;;;;;;;;5032295;28;19921;-86
2023/05/23 02:16:04;;;;;;;;;;;;;;;;;;5042230;28;20379;-86
2023/05/23 02:18:55;;;;;;;;;;;;;;;;;;5026080;28;19917;-87
2023/05/23 02:21:41;;;;;;;;;;;;;;;;;;5035733;28;19921;-87
2023/05/23 02:24:28;;;;;;;;;;;;;;;;;;5020188;28;19914;-88
2023/05/23 02:27:14;;;;;;;;;;;;;;;;;;5029437;28;19925;-87
2023/05/23 02:30:01;;;;;;;;;;;;;;;;;;5044536;28;19947;-87
2023/05/23 02:32:47;;;;;;;;;;;;;;;;;;5042954;28;19918;-87
2023/05/23 02:35:33;;;;;;;;;;;;;;;;;;5046254;28;19912;-87
2023/05/23 02:38:20;;;;;;;;;;;;;;;;;;5041299;28;20361;-86
2023/05/23 02:41:06;;;;;;;;;;;;;;;;;;5043275;28;19922;-86
2023/05/23 02:43:53;;;;;;;;;;;;;;;;;;5034148;28;19923;-87
2023/05/23 02:46:39;;;;;;;;;;;;;;;;;;5040252;28;19916;-87
2023/05/23 02:49:26;;;;;;;;;;;;;;;;;;5037088;28;19925;-87
2023/05/23 02:52:12;;;;;;;;;;;;;;;;;;5034191;28;19927;-87
2023/05/23 02:54:59;;;;;;;;;;;;;;;;;;5030622;28;19939;-88
2023/05/23 02:57:45;;;;;;;;;;;;;;;;;;5049300;28;19943;-87
2023/05/23 03:00:32;;;;;;;;;;;;;;;;;;5039963;28;19923;-87
2023/05/23 03:03:19;;;;;;;;;;;;;;;;;;5026373;28;19928;-87
2023/05/23 03:06:06;;;;;;;;;;;;;;;;;;5033149;28;19927;-87
2023/05/23 03:08:52;;;;;;;;;;;;;;;;;;5040993;28;19925;-87
2023/05/23 03:11:39;;;;;;;;;;;;;;;;;;5035704;28;19920;-84
2023/05/23 03:14:25;;;;;;;;;;;;;;;;;;5036154;28;19925;-84
2023/05/23 03:17:12;;;;;;;;;;;;;;;;;;5038062;28;19929;-85
2023/05/23 03:19:58;;;;;;;;;;;;;;;;;;5044566;28;19917;-86
2023/05/23 03:22:45;;;;;;;;;;;;;;;;;;5035023;28;19928;-86
2023/05/23 03:25:31;;;;;;;;;;;;;;;;;;5040273;28;19920;-86
2023/05/23 03:28:18;;;;;;;;;;;;;;;;;;5044788;28;19932;-86
2023/05/23 03:31:04;;;;;;;;;;;;;;;;;;5046663;28;19927;-84
2023/05/23 03:33:52;;;;;;;;;;;;;;;;;;5041217;28;19924;-83
2023/05/23 03:36:38;;;;;;;;;;;;;;;;;;5034956;28;20368;-85
2023/05/23 03:39:25;;;;;;;;;;;;;;;;;;5040494;28;19928;-87
2023/05/23 03:42:11;;;;;;;;;;;;;;;;;;5047138;28;19931;-86
2023/05/23 03:44:58;;;;;;;;;;;;;;;;;;5036780;28;19978;-85
2023/05/23 03:47:45;;;;;;;;;;;;;;;;;;5038277;28;19921;-87
2023/05/23 03:50:31;;;;;;;;;;;;;;;;;;5050866;28;19916;-85
2023/05/23 03:53:17;;;;;;;;;;;;;;;;;;5037768;28;19920;-86
2023/05/23 03:56:04;;;;;;;;;;;;;;;;;;5039585;28;19913;-87
2023/05/23 03:58:50;;;;;;;;;;;;;;;;;;5048289;28;19927;-89
2023/05/23 04:01:38;;;;;;;;;;;;;;;;;;5039507;28;19980;-85
2023/05/23 04:04:25;;;;;;;;;;;;;;;;;;5030671;28;19954;-86
2023/05/23 04:07:11;;;;;;;;;;;;;;;;;;5029132;28;19928;-85
2023/05/23 04:09:57;;;;;;;;;;;;;;;;;;5033582;28;19970;-85
2023/05/23 04:12:44;;;;;;;;;;;;;;;;;;5026565;28;19921;-87
2023/05/23 04:15:33;;;;;;;;;;;;;;;;;;5041923;28;19951;-85
2023/05/23 04:18:19;;;;;;;;;;;;;;;;;;5043079;28;19920;-86
2023/05/23 04:21:06;;;;;;;;;;;;;;;;;;5040498;28;19932;-86
2023/05/23 04:23:52;;;;;;;;;;;;;;;;;;5034723;28;20372;-85
2023/05/23 04:26:39;;;;;;;;;;;;;;;;;;5038356;28;19920;-86
2023/05/23 04:29:26;;;;;;;;;;;;;;;;;;5044092;28;19945;-86
2023/05/23 04:32:15;;;;;;;;;;;;;;;;;;5039500;28;20432;-86
2023/05/23 04:35:03;;;;;;;;;;;;;;;;;;5043259;28;19920;-86
2023/05/23 04:37:49;;;;;;;;;;;;;;;;;;5032363;28;19921;-87
2023/05/23 04:40:36;;;;;;;;;;;;;;;;;;5018008;28;20327;-88
2023/05/23 04:43:25;;;;;;;;;;;;;;;;;;5043518;28;20087;-88
2023/05/23 04:46:12;;;;;;;;;;;;;;;;;;5039216;28;19912;-87
2023/05/23 04:48:59;;;;;;;;;;;;;;;;;;5044026;28;20375;-88
2023/05/23 04:51:45;;;;;;;;;;;;;;;;;;5043326;28;19996;-87
2023/05/23 04:54:32;;;;;;;;;;;;;;;;;;5031073;28;20471;-89
2023/05/23 04:57:18;;;;;;;;;;;;;;;;;;5033466;28;19924;-86
2023/05/23 05:00:11;;;;;;;;;;;;;;;;;;5039438;28;19916;-87
2023/05/23 05:02:58;;;;;;;;;;;;;;;;;;5033299;28;19939;-85
2023/05/23 05:05:44;;;;;;;;;;;;;;;;;;5029797;28;19917;-86
2023/05/23 05:08:31;;;;;;;;;;;;;;;;;;5035997;28;19929;-86
2023/05/23 05:11:17;;;;;;;;;;;;;;;;;;5052550;28;19917;-85
2023/05/23 05:14:04;;;;;;;;;;;;;;;;;;5042963;28;19916;-85
2023/05/23 05:16:50;;;;;;;;;;;;;;;;;;5021387;28;19992;-86
2023/05/23 05:19:37;;;;;;;;;;;;;;;;;;5039783;28;19920;-85
2023/05/23 05:22:24;;;;;;;;;;;;;;;;;;5030874;28;19921;-86
2023/05/23 05:25:11;;;;;;;;;;;;;;;;;;5036761;28;19921;-86
2023/05/23 05:27:57;;;;;;;;;;;;;;;;;;5026160;28;19925;-87
2023/05/23 05:30:45;;;;;;;;;;;;;;;;;;5030693;28;20360;-87
2023/05/23 05:33:34;;;;;;;;;;;;;;;;;;5032146;28;19921;-84
2023/05/23 05:36:21;;;;;;;;;;;;;;;;;;5032613;28;19921;-87
2023/05/23 05:39:08;;;;;;;;;;;;;;;;;;5037072;28;20015;-84
2023/05/23 05:41:55;;;;;;;;;;;;;;;;;;5035685;28;19917;-85
2023/05/23 05:44:41;;;;;;;;;;;;;;;;;;5039886;28;19917;-86
2023/05/23 05:47:28;;;;;;;;;;;;;;;;;;5041663;28;19949;-85
2023/05/23 05:50:14;;;;;;;;;;;;;;;;;;5032049;28;20300;-87
2023/05/23 05:53:01;;;;;;;;;;;;;;;;;;5049150;28;19916;-85
2023/05/23 05:55:47;;;;;;;;;;;;;;;;;;5041155;28;19923;-88
2023/05/23 05:58:34;;;;;;;;;;;;;;;;;;5041542;28;19924;-82
2023/05/23 06:01:20;;;;;;;;;;;;;;;;;;5042010;28;19928;-86
2023/05/23 06:04:07;;;;;;;;;;;;;;;;;;5047519;28;19928;-87
2023/05/23 06:06:53;;;;;;;;;;;;;;;;;;5039330;28;20270;-87
2023/05/23 06:09:40;;;;;;;;;;;;;;;;;;5045607;28;19981;-88
2023/05/23 06:12:26;;;;;;;;;;;;;;;;;;5043457;28;19917;-86
2023/05/23 06:15:13;;;;;;;;;;;;;;;;;;5033965;28;20391;-87
2023/05/23 06:17:59;;;;;;;;;;;;;;;;;;5033697;28;19944;-89
2023/05/23 06:20:46;;;;;;;;;;;;;;;;;;5036139;28;19964;-87
2023/05/23 06:23:32;;;;;;;;;;;;;;;;;;5035579;28;19924;-85
2023/05/23 06:26:19;;;;;;;;;;;;;;;;;;5036285;28;19924;-84
2023/05/23 06:29:05;;;;;;;;;;;;;;;;;;5036438;28;19932;-84
2023/05/23 06:31:52;;;;;;;;;;;;;;;;;;5034568;28;19920;-83
2023/05/23 06:34:38;;;;;;;;;;;;;;;;;;5044623;28;19921;-83
2023/05/23 06:37:25;;;;;;;;;;;;;;;;;;5036652;28;19916;-83
2023/05/23 06:40:13;;;;;;;;;;;;;;;;;;5040100;28;19943;-83
2023/05/23 06:42:59;;;;;;;;;;;;;;;;;;5034807;28;19921;-83
2023/05/23 06:45:49;;;;;;;;;;;;;;;;;;5041336;28;19924;-83
2023/05/23 06:48:35;;;;;;;;;;;;;;;;;;5037399;28;19924;-83
2023/05/23 06:51:22;;;;;;;;;;;;;;;;;;5026489;28;19917;-83
2023/05/23 06:54:08;;;;;;;;;;;;;;;;;;5043950;28;19920;-84
2023/05/23 06:56:55;;;;;;;;;;;;;;;;;;5040933;28;19928;-84
2023/05/23 06:59:41;;;;;;;;;;;;;;;;;;5040331;28;19917;-81
2023/05/23 07:02:28;;;;;;;;;;;;;;;;;;5043194;28;20797;-82
2023/05/23 07:05:15;;;;;;;;;;;;;;;;;;5041519;28;19921;-82
2023/05/23 07:08:01;;;;;;;;;;;;;;;;;;5041657;28;19921;-82
2023/05/23 07:10:48;;;;;;;;;;;;;;;;;;5030875;28;20566;-82
2023/05/23 07:13:34;;;;;;;;;;;;;;;;;;5038656;28;19929;-81
2023/05/23 07:16:21;;;;;;;;;;;;;;;;;;5034906;28;19957;-82
2023/05/23 07:19:07;;;;;;;;;;;;;;;;;;5041858;28;20292;-83
2023/05/23 07:21:54;;;;;;;;;;;;;;;;;;5035203;28;19935;-83
2023/05/23 07:24:40;;;;;;;;;;;;;;;;;;5037442;28;19920;-82
2023/05/23 07:27:27;;;;;;;;;;;;;;;;;;5040628;28;19931;-82
2023/05/23 07:30:15;;;;;;;;;;;;;;;;;;5041967;28;20521;-82
2023/05/23 07:33:01;;;;;;;;;;;;;;;;;;5037879;28;19923;-82
2023/05/23 07:35:48;;;;;;;;;;;;;;;;;;5023807;28;19927;-82
2023/05/23 07:38:34;;;;;;;;;;;;;;;;;;5021681;28;19927;-81
2023/05/23 07:41:21;;;;;;;;;;;;;;;;;;5037691;28;20459;-83
2023/05/23 07:44:08;;;;;;;;;;;;;;;;;;5046637;28;19924;-83
2023/05/23 07:46:54;;;;;;;;;;;;;;;;;;5048751;28;19920;-83
2023/05/23 07:49:41;;;;;;;;;;;;;;;;;;5042673;28;19940;-82
2023/05/23 07:52:27;;;;;;;;;;;;;;;;;;5035387;28;19916;-83
2023/05/23 07:55:14;;;;;;;;;;;;;;;;;;5037888;28;20392;-83
2023/05/23 07:58:01;;;;;;;;;;;;;;;;;;5031622;28;19927;-83
2023/05/23 08:00:49;;;;;;;;;;;;;;;;;;5028394;28;20281;-82
2023/05/23 08:03:36;;;;;;;;;;;;;;;;;;5041451;28;19927;-83
2023/05/23 08:06:22;;;;;;;;;;;;;;;;;;5036901;28;19924;-83
2023/05/23 08:09:09;;;;;;;;;;;;;;;;;;5026017;28;19933;-82
2023/05/23 08:11:55;;;;;;;;;;;;;;;;;;5041116;28;19921;-82
2023/05/23 08:14:42;;;;;;;;;;;;;;;;;;5032625;28;19921;-82
2023/05/23 08:17:28;;;;;;;;;;;;;;;;;;5019691;28;19929;-82
2023/05/23 08:20:15;;;;;;;;;;;;;;;;;;5022599;28;19928;-82
2023/05/23 08:23:02;;;;;;;;;;;;;;;;;;5022667;28;19925;-82
2023/05/23 08:25:48;;;;;;;;;;;;;;;;;;5015915;28;19917;-82
2023/05/23 08:28:35;;;;;;;;;;;;;;;;;;5024686;28;19932;-81
2023/05/23 08:31:21;;;;;;;;;;;;;;;;;;5021179;28;19921;-81
2023/05/23 08:34:08;;;;;;;;;;;;;;;;;;5019254;28;19929;-81
2023/05/23 08:36:54;;;;;;;;;;;;;;;;;;5024075;28;19921;-80
2023/05/23 08:39:41;;;;;;;;;;;;;;;;;;5016871;28;19921;-82
2023/05/23 08:42:27;;;;;;;;;;;;;;;;;;5023767;28;19917;-84
2023/05/23 08:45:14;;;;;;;;;;;;;;;;;;5038554;28;19921;-82
2023/05/23 08:48:01;;;;;;;;;;;;;;;;;;5022620;28;19926;-82
2023/05/23 08:50:47;;;;;;;;;;;;;;;;;;5026539;28;19929;-83
2023/05/23 08:53:34;;;;;;;;;;;;;;;;;;5022104;28;19917;-81
2023/05/23 08:56:20;;;;;;;;;;;;;;;;;;5023607;28;19917;-83
2023/05/23 08:59:07;;;;;;;;;;;;;;;;;;5015198;28;19925;-83
2023/05/23 09:01:53;;;;;;;;;;;;;;;;;;5023501;28;19917;-82
2023/05/23 09:04:40;;;;;;;;;;;;;;;;;;5024182;28;19948;-82
2023/05/23 09:07:26;;;;;;;;;;;;;;;;;;5026707;28;20312;-81
2023/05/23 09:10:13;;;;;;;;;;;;;;;;;;5021963;28;19929;-82
2023/05/23 09:13:00;;;;;;;;;;;;;;;;;;5016263;28;19924;-82
2023/05/23 09:15:46;;;;;;;;;;;;;;;;;;5027427;28;19931;-81
2023/05/23 09:18:33;;;;;;;;;;;;;;;;;;5042983;28;20399;-80
2023/05/23 09:21:20;;;;;;;;;;;;;;;;;;5041889;28;19928;-82
2023/05/23 09:24:06;;;;;;;;;;;;;;;;;;5038898;28;20840;-82
2023/05/23 09:26:53;;;;;;;;;;;;;;;;;;5034953;28;19928;-82
2023/05/23 09:29:39;;;;;;;;;;;;;;;;;;5039979;28;20128;-82
2023/05/23 09:32:26;;;;;;;;;;;;;;;;;;5036137;28;19919;-84
2023/05/23 09:35:12;;;;;;;;;;;;;;;;;;5038563;28;19939;-82
2023/05/23 09:37:59;;;;;;;;;;;;;;;;;;5037526;28;20399;-82
2023/05/23 09:40:46;;;;;;;;;;;;;;;;;;5042112;28;19941;-82
2023/05/23 09:43:32;;;;;;;;;;;;;;;;;;5040041;28;19928;-82
2023/05/23 09:46:19;;;;;;;;;;;;;;;;;;5039537;28;19917;-82
2023/05/23 09:49:05;;;;;;;;;;;;;;;;;;5039572;28;19929;-82
2023/05/23 09:51:51;;;;;;;;;;;;;;;;;;5039363;28;19940;-83
2023/05/23 09:54:38;;;;;;;;;;;;;;;;;;5042921;28;19921;-81
2023/05/23 09:57:25;;;;;;;;;;;;;;;;;;5038914;28;19923;-82
2023/05/23 10:00:12;;;;;;;;;;;;;;;;;;5040475;28;19921;-83
2023/05/23 10:02:58;;;;;;;;;;;;;;;;;;5041588;28;19921;-81
2023/05/23 10:05:45;;;;;;;;;;;;;;;;;;5038628;28;19921;-82
2023/05/23 10:08:31;;;;;;;;;;;;;;;;;;5037386;28;19935;-82
2023/05/23 10:11:18;;;;;;;;;;;;;;;;;;5044217;28;19921;-82
2023/05/23 10:14:05;;;;;;;;;;;;;;;;;;5040084;28;19939;-82
2023/05/23 10:16:51;;;;;;;;;;;;;;;;;;5038262;28;20028;-82
2023/05/23 10:19:37;;;;;;;;;;;;;;;;;;5040909;28;20648;-82
2023/05/23 10:22:24;;;;;;;;;;;;;;;;;;5042044;28;19967;-83
2023/05/23 10:25:12;;;;;;;;;;;;;;;;;;5037507;28;19924;-82
2023/05/23 10:27:58;;;;;;;;;;;;;;;;;;5036220;28;19928;-84
2023/05/23 10:30:45;;;;;;;;;;;;;;;;;;5042519;28;19925;-83
2023/05/23 10:33:31;;;;;;;;;;;;;;;;;;5052125;28;20284;-82
2023/05/23 10:36:18;;;;;;;;;;;;;;;;;;5036901;28;19920;-83
2023/05/23 10:39:04;;;;;;;;;;;;;;;;;;5034004;28;19921;-83
2023/05/23 10:41:51;;;;;;;;;;;;;;;;;;5057452;28;19927;-82
2023/05/23 10:44:37;;;;;;;;;;;;;;;;;;5040682;28;20319;-83
2023/05/23 10:47:24;;;;;;;;;;;;;;;;;;5045263;28;19931;-83
2023/05/23 10:50:10;;;;;;;;;;;;;;;;;;5033355;28;19929;-82
2023/05/23 10:52:57;;;;;;;;;;;;;;;;;;5031800;28;19923;-82
2023/05/23 10:55:43;;;;;;;;;;;;;;;;;;5043263;28;19921;-82
2023/05/23 10:58:30;;;;;;;;;;;;;;;;;;5034684;28;19917;-82
2023/05/23 11:01:18;;;;;;;;;;;;;;;;;;5039257;28;19920;-83
2023/05/23 11:04:06;;;;;;;;;;;;;;;;;;5045316;28;20398;-84
2023/05/23 11:06:52;;;;;;;;;;;;;;;;;;5044997;28;19921;-83
2023/05/23 11:09:39;;;;;;;;;;;;;;;;;;5037813;28;19921;-83
2023/05/23 11:12:25;;;;;;;;;;;;;;;;;;5042633;28;20585;-84
2023/05/23 11:15:12;;;;;;;;;;;;;;;;;;5038305;28;19921;-83
2023/05/23 11:17:58;;;;;;;;;;;;;;;;;;5046811;28;19929;-83
2023/05/23 11:20:46;;;;;;;;;;;;;;;;;;5044649;28;19951;-83
2023/05/23 11:23:32;;;;;;;;;;;;;;;;;;5038966;28;20308;-83
2023/05/23 11:26:19;;;;;;;;;;;;;;;;;;5043580;28;19927;-83
2023/05/23 11:29:06;;;;;;;;;;;;;;;;;;5038310;28;19948;-83
2023/05/23 11:31:52;;;;;;;;;;;;;;;;;;5047415;28;19944;-83
2023/05/23 11:34:39;;;;;;;;;;;;;;;;;;5041097;28;19928;-83
2023/05/23 11:37:26;;;;;;;;;;;;;;;;;;5043669;28;19928;-83
2023/05/23 11:40:12;;;;;;;;;;;;;;;;;;5046440;28;19943;-83
2023/05/23 11:42:59;;;;;;;;;;;;;;;;;;5043023;28;19935;-84
2023/05/23 11:45:45;;;;;;;;;;;;;;;;;;5051640;28;19942;-84
2023/05/23 11:48:32;;;;;;;;;;;;;;;;;;5033694;28;19932;-84
2023/05/23 11:51:20;;;;;;;;;;;;;;;;;;5043147;28;19917;-84
2023/05/23 11:54:06;;;;;;;;;;;;;;;;;;5043377;28;19935;-84
2023/05/23 11:56:52;;;;;;;;;;;;;;;;;;5036972;28;19936;-84
2023/05/23 11:59:39;;;;;;;;;;;;;;;;;;5041711;28;19928;-85
2023/05/23 12:02:25;;;;;;;;;;;;;;;;;;5043856;28;19927;-85
2023/05/23 12:05:12;;;;;;;;;;;;;;;;;;5039232;28;19921;-85
2023/05/23 12:07:59;;;;;;;;;;;;;;;;;;5039096;28;19913;-84
2023/05/23 12:10:45;;;;;;;;;;;;;;;;;;5034669;28;19925;-84
2023/05/23 12:13:32;;;;;;;;;;;;;;;;;;5033886;28;19917;-83
2023/05/23 12:16:18;;;;;;;;;;;;;;;;;;5042854;28;19928;-84
2023/05/23 12:19:05;;;;;;;;;;;;;;;;;;5036847;28;20277;-85
2023/05/23 12:21:52;;;;;;;;;;;;;;;;;;5035933;28;19940;-85
2023/05/23 12:24:38;;;;;;;;;;;;;;;;;;5024933;28;19944;-85
2023/05/23 12:27:25;;;;;;;;;;;;;;;;;;5041998;28;19917;-85
2023/05/23 12:30:11;;;;;;;;;;;;;;;;;;5042436;28;20388;-85
2023/05/23 12:32:58;;;;;;;;;;;;;;;;;;5051354;28;19932;-85
2023/05/23 12:35:44;;;;;;;;;;;;;;;;;;5042648;28;19921;-85
2023/05/23 12:38:36;;;;;;;;;;;;;;;;;;5040986;28;20336;-84
2023/05/23 12:41:23;;;;;;;;;;;;;;;;;;5042644;28;19917;-85
2023/05/23 12:44:10;;;;;;;;;;;;;;;;;;5023696;28;19920;-85
2023/05/23 12:46:56;;;;;;;;;;;;;;;;;;5045279;28;19920;-84
2023/05/23 12:49:45;;;;;;;;;;;;;;;;;;5040261;28;19929;-84
2023/05/23 12:52:31;;;;;;;;;;;;;;;;;;5040587;28;19917;-84
2023/05/23 12:55:18;;;;;;;;;;;;;;;;;;5034562;28;19932;-84
2023/05/23 12:58:04;;;;;;;;;;;;;;;;;;5042620;28;20422;-84
2023/05/23 13:00:51;;;;;;;;;;;;;;;;;;5040607;28;20121;-83
2023/05/23 13:03:38;;;;;;;;;;;;;;;;;;5035473;28;20028;-84
2023/05/23 13:06:24;;;;;;;;;;;;;;;;;;5036891;28;19917;-83
2023/05/23 13:09:10;;;;;;;;;;;;;;;;;;5039757;28;19925;-83
2023/05/23 13:11:57;;;;;;;;;;;;;;;;;;5040195;28;19913;-84
2023/05/23 13:14:44;;;;;;;;;;;;;;;;;;5044574;28;19919;-84
2023/05/23 13:17:30;;;;;;;;;;;;;;;;;;5042060;28;20364;-83
2023/05/23 13:20:17;;;;;;;;;;;;;;;;;;5040256;28;19933;-84
2023/05/23 13:23:04;;;;;;;;;;;;;;;;;;5040940;28;19916;-84
2023/05/23 13:25:50;;;;;;;;;;;;;;;;;;5039230;28;19944;-84
2023/05/23 13:28:37;;;;;;;;;;;;;;;;;;5041343;28;19929;-83
2023/05/23 13:31:24;;;;;;;;;;;;;;;;;;5036405;28;20489;-86
2023/05/23 13:34:10;;;;;;;;;;;;;;;;;;5020085;28;20300;-83
2023/05/23 13:36:57;;;;;;;;;;;;;;;;;;5039616;28;19916;-84
2023/05/23 13:39:43;;;;;;;;;;;;;;;;;;5041029;28;19919;-84
2023/05/23 13:42:30;;;;;;;;;;;;;;;;;;5037153;28;19921;-83
2023/05/23 13:45:16;;;;;;;;;;;;;;;;;;5037251;28;19927;-84
2023/05/23 13:48:03;;;;;;;;;;;;;;;;;;5037040;28;19927;-83
2023/05/23 13:50:49;;;;;;;;;;;;;;;;;;5032570;28;19939;-82
2023/05/23 13:53:36;;;;;;;;;;;;;;;;;;5036176;28;19925;-82
2023/05/23 13:56:23;;;;;;;;;;;;;;;;;;5040208;28;19921;-83
2023/05/23 13:59:09;;;;;;;;;;;;;;;;;;5036681;28;19921;-83
2023/05/23 14:01:56;;;;;;;;;;;;;;;;;;5039815;28;19927;-80
2023/05/23 14:04:42;;;;;;;;;;;;;;;;;;5025350;28;19916;-82
2023/05/23 14:07:29;;;;;;;;;;;;;;;;;;5034478;28;19924;-78
2023/05/23 14:10:16;;;;;;;;;;;;;;;;;;5037441;28;19925;-80
2023/05/23 14:13:02;;;;;;;;;;;;;;;;;;5044188;28;20284;-80
2023/05/23 14:15:49;;;;;;;;;;;;;;;;;;5051252;28;19929;-81
2023/05/23 14:18:36;;;;;;;;;;;;;;;;;;5038742;28;19921;-80
2023/05/23 14:21:22;;;;;;;;;;;;;;;;;;5042714;28;19921;-80
2023/05/23 14:24:09;;;;;;;;;;;;;;;;;;5034413;28;19921;-80
2023/05/23 14:26:56;;;;;;;;;;;;;;;;;;5034197;28;19939;-79
2023/05/23 14:29:45;;;;;;;;;;;;;;;;;;5038681;28;19925;-82
2023/05/23 14:32:37;;;;;;;;;;;;;;;;;;5024222;28;19920;-79
2023/05/23 14:35:25;;;;;;;;;;;;;;;;;;5033100;28;20347;-81
2023/05/23 14:38:11;;;;;;;;;;;;;;;;;;5036206;28;19927;-80
2023/05/23 14:40:58;;;;;;;;;;;;;;;;;;5038438;28;19916;-79
2023/05/23 14:43:45;;;;;;;;;;;;;;;;;;5048732;28;20018;-88
2023/05/23 14:46:31;;;;;;;;;;;;;;;;;;5044918;28;19921;-87
2023/05/23 14:49:18;;;;;;;;;;;;;;;;;;5044217;28;19944;-87
2023/05/23 14:52:04;;;;;;;;;;;;;;;;;;5043180;28;19921;-86
2023/05/23 14:54:51;;;;;;;;;;;;;;;;;;5046763;28;20042;-87
2023/05/23 14:57:38;;;;;;;;;;;;;;;;;;5040220;28;19936;-87
2023/05/23 15:00:24;;;;;;;;;;;;;;;;;;5044733;28;19920;-88
2023/05/23 15:03:11;;;;;;;;;;;;;;;;;;5045119;28;19917;-88
2023/05/23 15:05:57;;;;;;;;;;;;;;;;;;5043061;28;19924;-87
2023/05/23 15:08:45;;;;;;;;;;;;;;;;;;5026687;28;19921;-88
2023/05/23 15:11:33;;;;;;;;;;;;;;;;;;5032886;28;19929;-86
2023/05/23 15:14:21;;;;;;;;;;;;;;;;;;5046162;28;19943;-88
2023/05/23 15:17:08;;;;;;;;;;;;;;;;;;5039822;28;19928;-87
2023/05/23 15:19:54;;;;;;;;;;;;;;;;;;5040045;28;19928;-88
2023/05/23 15:22:41;;;;;;;;;;;;;;;;;;5039242;28;20288;-88
2023/05/23 15:25:27;;;;;;;;;;;;;;;;;;5038653;28;19917;-87
2023/05/23 15:28:14;;;;;;;;;;;;;;;;;;5036306;28;19920;-86
2023/05/23 15:31:00;;;;;;;;;;;;;;;;;;5038177;28;19929;-89
2023/05/23 15:33:47;;;;;;;;;;;;;;;;;;5047714;28;19924;-87
2023/05/23 15:36:33;;;;;;;;;;;;;;;;;;5037989;28;20458;-87
2023/05/23 15:39:20;;;;;;;;;;;;;;;;;;5034943;28;19925;-87
2023/05/23 15:42:06;;;;;;;;;;;;;;;;;;5041233;28;20361;-84
2023/05/23 15:44:53;;;;;;;;;;;;;;;;;;5038139;28;20337;-86
2023/05/23 15:47:39;;;;;;;;;;;;;;;;;;5044356;28;19921;-86
2023/05/23 15:50:26;;;;;;;;;;;;;;;;;;5039390;28;20316;-86
2023/05/23 15:53:12;;;;;;;;;;;;;;;;;;5045012;28;19925;-86
2023/05/23 15:55:59;;;;;;;;;;;;;;;;;;5038218;28;19921;-86
2023/05/23 15:58:45;;;;;;;;;;;;;;;;;;5026988;28;19924;-86
2023/05/23 16:01:32;;;;;;;;;;;;;;;;;;5039961;28;19928;-86
2023/05/23 16:04:19;;;;;;;;;;;;;;;;;;5042562;28;20410;-86
2023/05/23 16:07:05;;;;;;;;;;;;;;;;;;5044378;28;19930;-87
2023/05/23 16:09:52;;;;;;;;;;;;;;;;;;5042219;28;19927;-87
2023/05/23 16:12:38;;;;;;;;;;;;;;;;;;5043607;28;19921;-85
2023/05/23 16:15:25;;;;;;;;;;;;;;;;;;5044744;28;19921;-86
2023/05/23 16:18:11;;;;;;;;;;;;;;;;;;5015325;28;19937;-85
2023/05/23 16:20:58;;;;;;;;;;;;;;;;;;5020931;28;19928;-86
2023/05/23 16:23:44;;;;;;;;;;;;;;;;;;5011836;28;19927;-86
2023/05/23 16:26:31;;;;;;;;;;;;;;;;;;5022037;28;20506;-86
2023/05/23 16:29:17;;;;;;;;;;;;;;;;;;5017023;28;19918;-88
2023/05/23 16:32:04;;;;;;;;;;;;;;;;;;5022444;28;20629;-86
2023/05/23 16:34:50;;;;;;;;;;;;;;;;;;5015415;28;19921;-88
2023/05/23 16:37:37;;;;;;;;;;;;;;;;;;5017963;28;19921;-89
2023/05/23 16:40:24;;;;;;;;;;;;;;;;;;5024585;28;19917;-88
2023/05/23 16:43:10;;;;;;;;;;;;;;;;;;5019551;28;19921;-88
2023/05/23 16:45:57;;;;;;;;;;;;;;;;;;5028165;28;19927;-88
2023/05/23 16:48:43;;;;;;;;;;;;;;;;;;5022314;28;20495;-87
2023/05/23 16:51:30;;;;;;;;;;;;;;;;;;5027821;28;20024;-83
2023/05/23 16:54:17;;;;;;;;;;;;;;;;;;5016146;28;19924;-85
2023/05/23 16:57:04;;;;;;;;;;;;;;;;;;5015358;28;19921;-85
2023/05/23 16:59:50;;;;;;;;;;;;;;;;;;5016059;28;19928;-83
2023/05/23 17:02:37;;;;;;;;;;;;;;;;;;5017626;28;19917;-82
2023/05/23 17:05:23;;;;;;;;;;;;;;;;;;5026281;28;19998;-83
2023/05/23 17:08:10;;;;;;;;;;;;;;;;;;5020304;28;19921;-85
2023/05/23 17:10:56;;;;;;;;;;;;;;;;;;5017709;28;19937;-85
2023/05/23 17:13:43;;;;;;;;;;;;;;;;;;5013815;28;19924;-84
2023/05/23 17:16:31;;;;;;;;;;;;;;;;;;5020440;28;19933;-81
2023/05/23 17:19:18;;;;;;;;;;;;;;;;;;5012032;28;19917;-83
2023/05/23 17:22:05;;;;;;;;;;;;;;;;;;5014935;28;20597;-84
2023/05/23 17:24:51;;;;;;;;;;;;;;;;;;5015319;28;20363;-84
2023/05/23 17:27:37;;;;;;;;;;;;;;;;;;5007553;28;19928;-84
2023/05/23 17:30:24;;;;;;;;;;;;;;;;;;5023394;28;19929;-82
2023/05/23 17:33:11;;;;;;;;;;;;;;;;;;5017901;28;20387;-82
2023/05/23 17:35:57;;;;;;;;;;;;;;;;;;4987883;28;19928;-83
2023/05/23 17:38:44;;;;;;;;;;;;;;;;;;5015256;28;19932;-82
2023/05/23 17:41:30;;;;;;;;;;;;;;;;;;5019104;28;20463;-82
2023/05/23 17:44:17;;;;;;;;;;;;;;;;;;5024313;28;19924;-83
2023/05/23 17:47:03;;;;;;;;;;;;;;;;;;5012566;28;19956;-84
2023/05/23 17:49:50;;;;;;;;;;;;;;;;;;5018100;28;19925;-83
2023/05/23 17:52:36;;;;;;;;;;;;;;;;;;5019841;28;20009;-84
2023/05/23 17:55:23;;;;;;;;;;;;;;;;;;5007814;28;19932;-84
2023/05/23 17:58:09;;;;;;;;;;;;;;;;;;5015165;28;19925;-84
2023/05/23 18:00:56;;;;;;;;;;;;;;;;;;5011760;28;19925;-82
2023/05/23 18:03:42;;;;;;;;;;;;;;;;;;5009988;28;20395;-83
2023/05/23 18:06:29;;;;;;;;;;;;;;;;;;5024566;28;20404;-83
2023/05/23 18:09:16;;;;;;;;;;;;;;;;;;5022987;28;19938;-84
2023/05/23 18:12:02;;;;;;;;;;;;;;;;;;5019222;28;19928;-83
2023/05/23 18:14:50;;;;;;;;;;;;;;;;;;5018933;28;19925;-82
2023/05/23 18:17:37;;;;;;;;;;;;;;;;;;5017216;28;19925;-78
2023/05/23 18:20:23;;;;;;;;;;;;;;;;;;5014666;28;19917;-78
2023/05/23 18:23:10;;;;;;;;;;;;;;;;;;5007550;28;20497;-78
2023/05/23 18:25:57;;;;;;;;;;;;;;;;;;5005682;28;19925;-82
2023/05/23 18:28:43;;;;;;;;;;;;;;;;;;5016705;28;19921;-81
2023/05/23 18:31:30;;;;;;;;;;;;;;;;;;5018578;28;19929;-82
2023/05/23 18:34:16;;;;;;;;;;;;;;;;;;5017441;28;19919;-85
2023/05/23 18:37:03;;;;;;;;;;;;;;;;;;5018594;28;19928;-84
2023/05/23 18:39:49;;;;;;;;;;;;;;;;;;5025111;28;19922;-86
2023/05/23 18:42:36;;;;;;;;;;;;;;;;;;5014187;28;19917;-85
2023/05/23 18:45:22;;;;;;;;;;;;;;;;;;5014788;28;20313;-85
2023/05/23 18:48:09;;;;;;;;;;;;;;;;;;5012058;28;19921;-84
2023/05/23 18:50:55;;;;;;;;;;;;;;;;;;5013861;28;19929;-84
2023/05/23 18:53:42;;;;;;;;;;;;;;;;;;5022658;28;21062;-84
2023/05/23 18:56:28;;;;;;;;;;;;;;;;;;5024096;28;19936;-85
2023/05/23 18:59:15;;;;;;;;;;;;;;;;;;5013805;28;20361;-84